Detalii statie AGRIND TASNAD [0000197A]

Toti senzorii

Date Temperatura solului [C]Precipitatii [mm]Voltaj baterie [mV]Leaf Wetness [Min]HC Air temperature [C]HC Relative humidity [%]Punctul de roua [C]
medieminmaxsumaultimatimpmedieminmaxmediemediemin
2019-06-15 18:00:00 27.4 27.4 27.4 0 7274 33.78 33.78 33.79 39.04 17.6 17.4
2019-06-15 18:10:00 27.4 27.4 27.4 0 7274 33.53 33.49 33.58 41.85 18.5 18.4
2019-06-15 18:20:00 27.3 27.3 27.4 0 7264 33.1 33.04 33.17 41.79 18.2 18
2019-06-15 18:30:00 27.3 27.3 27.4 0 7246 32.92 32.8 33.05 43.81 18.8 18.2
2019-06-15 18:40:00 27.2 27.2 27.2 0 7264 33.18 32.9 33.47 40.39 17.7 17.5
2019-06-15 18:50:00 27.2 27.2 27.3 0 7216 32.87 32.47 33.27 44.24 18.7 18.2
2019-06-15 19:00:00 27.2 27.2 27.2 0 7254 31.99 31.81 32.18 46.85 18.9 18.7
2019-06-15 19:10:00 27 27 27.1 0 6982 31.14 30.99 31.29 47.31 18.2 18.2
2019-06-15 19:20:00 27.1 27.1 27.1 0 6992 31.19 31.07 31.32 47.46 18.5 18
2019-06-15 19:30:00 27.1 27.1 27.1 0 6982 31.28 31.27 31.29 48.48 18.9 18.9
2019-06-15 19:40:00 27 27 27.1 0 6982 30.83 30.64 31.02 54.18 20.2 19.9
2019-06-15 19:50:00 27 27 27 0 6972 30.4 30.34 30.47 53.87 19.6 19.6
2019-06-15 20:00:00 26.9 26.9 27 0 6962 30.27 30.23 30.31 54.7 19.9 19.9
2019-06-15 20:10:00 26.8 26.8 26.8 0 6914 29.61 29.27 29.95 58.02 20.3 20.1
2019-06-15 20:20:00 26.6 26.6 26.7 0 6922 28.75 28.73 28.77 63.55 20.9 20.4
2019-06-15 20:30:00 26.6 26.6 26.7 0 6932 28.39 28.26 28.53 67.34 21.6 21.5
2019-06-15 20:40:00 26.6 26.5 26.8 0 6932 28.08 28.02 28.15 69.35 21.8 21.8
2019-06-15 20:50:00 26.5 26.4 26.6 0 6922 27.41 27.16 27.67 76.36 22.7 22.7
2019-06-15 21:00:00 26.3 26.3 26.4 0 6932 26.89 26.86 26.93 78.49 22.6 22.6
2019-06-15 21:10:00 26.3 26.3 26.3 0 6894 26.01 25.72 26.31 86.35 23.5 23.4
2019-06-15 21:20:00 26.3 26.3 26.3 0 6914 25.32 25.26 25.38 90.88 23.5 23.5
2019-06-15 21:30:00 26.3 26.3 26.4 0 6914 24.99 24.92 25.06 92.4 23.5 23.5
2019-06-15 21:40:00 26.1 26.1 26.2 0 6914 24.77 24.71 24.84 93.43 23.5 23.5
2019-06-15 21:50:00 26.2 26.2 26.3 0 6922 24.14 23.92 24.37 96.52 23.4 23.4
2019-06-15 22:00:00 26 26 26 0 6914 23.61 23.55 23.68 99.23 23.3 23.3
2019-06-15 22:10:00 26 25.9 26.1 0 6884 23.39 23.35 23.43 99.99 23.2 23.2
2019-06-15 22:20:00 25.9 25.9 25.9 0 6904 23.34 23.32 23.37 99.99 23.2 23.1
2019-06-15 22:30:00 25.8 25.7 25.9 0 6904 23.41 23.4 23.43 98.83 23.1 23.1
2019-06-15 22:40:00 25.8 25.8 25.8 0 6914 23.32 23.32 23.32 98.09 23 23
2019-06-15 22:50:00 25.6 25.6 25.6 0 6914 23.16 23.11 23.21 98.4 22.8 22.8
2019-06-15 23:00:00 25.6 25.6 25.6 0 6914 22.97 22.9 23.04 98.79 22.6 22.6
2019-06-15 23:10:00 25.5 25.5 25.6 0 6874 22.65 22.59 22.72 98.68 22.3 22.2
2019-06-15 23:20:00 25.4 25.4 25.5 0 6894 22.51 22.46 22.57 99.25 22.2 22.2
2019-06-15 23:30:00 25.4 25.4 25.4 0 6904 22.56 22.54 22.59 98.52 22.2 22.2
2019-06-15 23:40:00 25.4 25.4 25.4 0 6904 22.39 22.32 22.46 99.41 22.1 22.1
2019-06-15 23:50:00 25.3 25.3 25.3 0 6914 22.05 21.93 22.17 100 22 21.9
2019-06-16 00:00:00 25.1 25.1 25.1 0 6914 21.91 21.9 21.92 100 21.9 21.9
2019-06-16 00:10:00 25.1 25.1 25.1 0 6844 21.64 21.55 21.73 100 21.6 21.5
2019-06-16 00:20:00 25 25 25 0 6884 21.49 21.49 21.49 100 21.4 21.4
2019-06-16 00:30:00 24.9 24.9 24.9 0 6894 21.73 21.56 21.9 100 21.7 21.5
2019-06-16 00:40:00 24.8 24.8 24.9 0 6904 22.33 22.19 22.48 96.88 21.7 21.6
2019-06-16 00:50:00 24.8 24.7 24.9 0 6904 22.24 22.19 22.29 96.54 21.4 21.4
2019-06-16 01:00:00 24.7 24.7 24.8 0 6904 22.62 22.61 22.64 93.46 21.4 21.2
2019-06-16 01:10:00 24.7 24.7 24.7 0 6864 22.47 22.44 22.5 93.28 21.2 21.2
2019-06-16 01:20:00 24.6 24.5 24.7 0 6894 22.4 22.36 22.44 93.42 21.1 21.1
2019-06-16 01:30:00 24.6 24.6 24.7 0 6904 22.36 22.36 22.37 92.97 21 20.9
2019-06-16 01:40:00 24.6 24.6 24.7 0 6904 21.99 21.93 22.06 95.18 21 21
2019-06-16 01:50:00 24.5 24.5 24.5 0 6914 21.57 21.43 21.71 98.42 21.2 21.2